createdAt,value
2017-05-15T00:01:46.491Z,77.70
2017-05-15T00:04:14.830Z,77.80
2017-05-15T00:06:43.128Z,77.90
2017-05-15T00:09:11.433Z,77.90
2017-05-15T00:11:40.510Z,77.90
2017-05-15T00:14:08.814Z,78.20
2017-05-15T00:16:37.087Z,78.10
2017-05-15T00:19:06.240Z,78.20
2017-05-15T00:21:34.551Z,78.20
2017-05-15T00:24:02.852Z,78.30
2017-05-15T00:26:31.228Z,78.70
2017-05-15T00:28:59.527Z,78.50
2017-05-15T00:31:27.894Z,78.50
2017-05-15T00:33:56.237Z,78.40
2017-05-15T00:36:24.566Z,78.20
2017-05-15T00:38:52.853Z,78.20
2017-05-15T00:41:21.146Z,78.10
2017-05-15T00:43:49.467Z,77.90
2017-05-15T00:46:17.748Z,77.90
2017-05-15T00:48:46.024Z,77.90
2017-05-15T00:51:14.496Z,78.50
2017-05-15T00:53:42.794Z,77.60
2017-05-15T00:56:11.146Z,77.50
2017-05-15T00:58:40.207Z,77.70
2017-05-15T01:01:08.515Z,77.90
2017-05-15T01:03:36.839Z,78.00
2017-05-15T01:06:05.151Z,77.80
2017-05-15T01:08:33.628Z,77.70
2017-05-15T01:11:01.906Z,77.80
2017-05-15T01:13:30.287Z,78.20
2017-05-15T01:15:58.568Z,78.10
2017-05-15T01:18:26.867Z,78.20
2017-05-15T01:20:55.179Z,78.00
2017-05-15T01:23:24.178Z,77.70
2017-05-15T01:25:52.465Z,77.70
2017-05-15T01:28:20.758Z,76.90
2017-05-15T01:30:49.067Z,76.40
2017-05-15T01:33:17.376Z,76.30
2017-05-15T01:35:45.744Z,77.90
2017-05-15T01:38:14.795Z,77.20
2017-05-15T01:40:43.122Z,77.60
2017-05-15T01:43:11.436Z,78.00
2017-05-15T01:45:39.735Z,78.20
2017-05-15T01:48:08.030Z,78.00
2017-05-15T01:50:36.351Z,78.40
2017-05-15T01:53:04.673Z,78.60
2017-05-15T01:55:32.978Z,79.00
2017-05-15T01:58:01.268Z,78.90
2017-05-15T02:00:29.600Z,78.90
2017-05-15T02:02:57.878Z,78.90
2017-05-15T02:05:26.162Z,78.60
2017-05-15T02:07:55.229Z,78.40
2017-05-15T02:10:23.542Z,78.00
2017-05-15T02:12:51.843Z,77.70
2017-05-15T02:15:20.894Z,77.00
2017-05-15T02:17:49.242Z,76.90
2017-05-15T02:20:17.540Z,77.00
2017-05-15T02:22:45.852Z,76.90
2017-05-15T02:25:14.142Z,76.90
2017-05-15T02:27:43.200Z,76.90
2017-05-15T02:30:11.480Z,76.80
2017-05-15T02:32:39.755Z,76.80
2017-05-15T02:35:08.067Z,76.70
2017-05-15T02:37:36.369Z,76.50
2017-05-15T02:40:04.642Z,76.60
2017-05-15T02:42:32.926Z,76.80
2017-05-15T02:45:01.230Z,77.30
2017-05-15T02:47:29.592Z,76.90
2017-05-15T02:49:57.879Z,76.60
2017-05-15T02:52:27.051Z,76.40
2017-05-15T02:54:55.431Z,75.60
2017-05-15T02:57:23.753Z,74.80
2017-05-15T02:59:52.062Z,76.00
2017-05-15T03:02:20.373Z,76.10
2017-05-15T03:04:48.715Z,76.00
2017-05-15T03:07:17.016Z,75.90
2017-05-15T03:09:45.317Z,76.00
2017-05-15T03:12:13.611Z,76.00
2017-05-15T03:14:41.918Z,76.00
2017-05-15T03:17:10.211Z,75.80
2017-05-15T03:19:38.490Z,75.30
2017-05-15T03:22:06.811Z,74.90
2017-05-15T03:24:35.097Z,74.70
2017-05-15T03:27:03.378Z,75.00
2017-05-15T03:29:31.668Z,75.10
2017-05-15T03:31:59.966Z,75.50
2017-05-15T03:34:28.244Z,75.60
2017-05-15T03:36:57.337Z,75.60
2017-05-15T03:39:25.611Z,75.30
2017-05-15T03:41:53.890Z,73.60
2017-05-15T03:44:22.205Z,74.30
2017-05-15T03:46:50.486Z,74.50
2017-05-15T03:49:18.770Z,74.90
2017-05-15T03:51:47.091Z,75.00
2017-05-15T03:54:15.379Z,74.80
2017-05-15T03:56:43.661Z,73.50
2017-05-15T03:59:12.689Z,72.40
2017-05-15T04:01:40.997Z,72.20
2017-05-15T04:04:09.296Z,73.60
2017-05-15T04:06:37.578Z,72.70
2017-05-15T04:09:05.898Z,72.80
2017-05-15T04:11:34.228Z,72.10
2017-05-15T04:14:02.518Z,71.30
2017-05-15T04:16:30.816Z,71.60
2017-05-15T04:18:59.841Z,71.40
2017-05-15T04:21:28.121Z,70.10
2017-05-15T04:23:56.895Z,70.40
2017-05-15T04:26:25.227Z,69.90
2017-05-15T04:28:53.533Z,69.40
2017-05-15T04:31:22.604Z,69.90
2017-05-15T04:33:50.884Z,69.20
2017-05-15T04:36:19.182Z,68.30
2017-05-15T04:38:47.474Z,68.50
2017-05-15T04:41:15.747Z,68.50
2017-05-15T04:43:44.061Z,69.50
2017-05-15T04:46:12.343Z,70.50
2017-05-15T04:48:40.627Z,70.20
2017-05-15T04:51:08.925Z,69.40
2017-05-15T04:53:37.224Z,70.10
2017-05-15T04:56:06.256Z,70.10
2017-05-15T04:58:34.525Z,69.10
2017-05-15T05:01:02.858Z,69.10
2017-05-15T05:03:31.135Z,69.20
2017-05-15T05:06:00.757Z,69.30
2017-05-15T05:08:29.079Z,69.40
2017-05-15T05:10:57.404Z,69.00
2017-05-15T05:13:26.552Z,69.10
2017-05-15T05:15:54.935Z,69.70
2017-05-15T05:18:23.209Z,69.50
2017-05-15T05:21:16.896Z,68.50
2017-05-15T05:24:08.165Z,68.10
2017-05-15T05:26:57.878Z,67.40
2017-05-15T05:29:46.744Z,67.60
2017-05-15T05:32:26.878Z,67.90
2017-05-15T05:35:16.607Z,68.20
2017-05-15T05:38:18.432Z,67.70
2017-05-15T05:40:51.238Z,68.20
2017-05-15T05:43:23.187Z,68.10
2017-05-15T05:45:51.591Z,68.50
2017-05-15T05:48:19.927Z,67.30
2017-05-15T05:50:48.227Z,66.10
2017-05-15T05:53:16.518Z,66.90
2017-05-15T05:56:11.516Z,65.90
2017-05-15T05:58:39.793Z,66.00
2017-05-15T06:01:19.996Z,66.00
2017-05-15T06:04:00.097Z,65.10
2017-05-15T06:06:40.136Z,65.30
2017-05-15T06:09:20.360Z,65.90
2017-05-15T06:12:00.631Z,64.90
2017-05-15T06:14:52.736Z,65.40
2017-05-15T06:17:44.270Z,64.40
2017-05-15T06:20:12.093Z,64.50
2017-05-15T06:22:52.232Z,64.60
2017-05-15T06:25:32.229Z,63.60
2017-05-15T06:28:00.511Z,64.20
2017-05-15T06:30:28.851Z,64.50
2017-05-15T06:32:57.114Z,64.10
2017-05-15T06:35:25.415Z,64.20
2017-05-15T06:38:18.313Z,64.40
2017-05-15T06:41:11.014Z,64.20
2017-05-15T06:43:39.479Z,63.70
2017-05-15T06:46:07.764Z,64.80
2017-05-15T06:48:36.077Z,65.40
2017-05-15T06:51:04.391Z,64.20
2017-05-15T06:53:32.664Z,63.80
2017-05-15T06:56:00.970Z,63.40
2017-05-15T06:58:29.275Z,62.70
2017-05-15T07:00:57.560Z,63.40
2017-05-15T07:03:25.872Z,62.50
2017-05-15T07:05:54.199Z,62.90
2017-05-15T07:08:22.271Z,63.00
2017-05-15T07:10:50.579Z,62.50
2017-05-15T07:13:18.881Z,61.50
2017-05-15T07:15:47.194Z,61.90
2017-05-15T07:18:15.475Z,60.50
2017-05-15T07:20:43.751Z,60.60
2017-05-15T07:23:12.120Z,60.50
2017-05-15T07:25:40.436Z,60.60
2017-05-15T07:28:08.752Z,59.80
2017-05-15T07:30:37.024Z,59.60
2017-05-15T07:33:05.319Z,59.20
2017-05-15T07:35:33.617Z,58.80
2017-05-15T07:38:01.923Z,58.20
2017-05-15T07:40:30.215Z,58.50
2017-05-15T07:42:59.249Z,58.10
2017-05-15T07:45:27.530Z,57.80
2017-05-15T07:47:55.914Z,57.80
2017-05-15T07:50:24.231Z,58.20
2017-05-15T07:52:52.530Z,57.20
2017-05-15T07:55:20.804Z,58.20
2017-05-15T07:57:49.152Z,58.40
2017-05-15T08:00:17.481Z,57.80
2017-05-15T08:02:45.765Z,57.00
2017-05-15T08:05:14.178Z,57.20
2017-05-15T08:07:42.479Z,57.30
2017-05-15T08:10:11.490Z,57.10
2017-05-15T08:12:39.818Z,57.10
2017-05-15T08:15:08.104Z,57.00
2017-05-15T08:17:36.386Z,57.50
2017-05-15T08:20:04.647Z,57.40
2017-05-15T08:22:32.927Z,58.00
2017-05-15T08:25:01.243Z,58.10
2017-05-15T08:27:30.262Z,58.80
2017-05-15T08:29:58.559Z,58.90
2017-05-15T08:32:26.841Z,59.60
2017-05-15T08:34:55.122Z,59.70
2017-05-15T08:37:23.432Z,60.40
2017-05-15T08:39:51.720Z,60.30
2017-05-15T08:42:20.791Z,60.10
2017-05-15T08:44:49.117Z,60.50
2017-05-15T08:47:17.446Z,60.50
2017-05-15T08:49:45.775Z,60.90
2017-05-15T08:52:14.064Z,60.60
2017-05-15T08:54:42.359Z,60.40
2017-05-15T08:57:10.676Z,61.10
2017-05-15T08:59:39.048Z,61.20
2017-05-15T09:02:07.337Z,59.80
2017-05-15T09:04:35.619Z,60.30
2017-05-15T09:07:04.682Z,59.90
2017-05-15T09:09:32.954Z,59.40
2017-05-15T09:12:01.446Z,58.70
2017-05-15T09:14:29.765Z,58.90
2017-05-15T09:16:58.050Z,59.10
2017-05-15T09:19:26.334Z,59.00
2017-05-15T09:21:54.628Z,58.90
2017-05-15T09:24:22.916Z,58.50
2017-05-15T09:26:51.223Z,59.00
2017-05-15T09:29:19.513Z,58.80
2017-05-15T09:31:48.534Z,59.60
2017-05-15T09:34:16.859Z,58.50
2017-05-15T09:36:45.223Z,57.60
2017-05-15T09:39:13.516Z,57.40
2017-05-15T09:41:41.834Z,56.30
2017-05-15T09:44:10.139Z,56.80
2017-05-15T09:46:38.414Z,56.00
2017-05-15T09:49:06.730Z,56.30
2017-05-15T09:51:35.837Z,56.60
2017-05-15T09:54:04.171Z,55.30
2017-05-15T09:56:32.476Z,55.00
2017-05-15T09:59:00.761Z,54.10
2017-05-15T10:01:29.043Z,53.80
2017-05-15T10:03:57.318Z,54.20
2017-05-15T10:06:25.596Z,53.70
2017-05-15T10:08:53.870Z,54.10
2017-05-15T10:11:22.166Z,54.20
2017-05-15T10:13:50.871Z,53.60
2017-05-15T10:16:19.152Z,52.20
2017-05-15T10:18:47.468Z,52.10
2017-05-15T10:21:15.755Z,51.50
2017-05-15T10:23:44.090Z,50.90
2017-05-15T10:26:12.384Z,50.60
2017-05-15T10:28:40.683Z,50.50
2017-05-15T10:31:08.992Z,49.40
2017-05-15T10:33:37.287Z,49.20
2017-05-15T10:36:05.645Z,47.00
2017-05-15T10:38:34.671Z,45.20
2017-05-15T10:41:02.939Z,44.40
2017-05-15T10:43:31.259Z,44.50
2017-05-15T10:45:59.571Z,43.40
2017-05-15T10:48:28.659Z,42.20
2017-05-15T10:50:56.964Z,41.50
2017-05-15T10:53:25.268Z,40.20
2017-05-15T10:55:53.565Z,39.20
2017-05-15T10:58:21.844Z,41.80
2017-05-15T11:00:50.196Z,41.90
2017-05-15T11:03:18.519Z,38.30
2017-05-15T11:05:46.822Z,36.10
2017-05-15T11:08:16.093Z,36.30
2017-05-15T11:10:45.130Z,36.10
2017-05-15T11:13:13.419Z,37.60
2017-05-15T11:15:41.762Z,37.20
2017-05-15T11:18:10.788Z,37.40
2017-05-15T11:20:40.126Z,34.40
2017-05-15T11:23:08.421Z,33.80
2017-05-15T11:25:36.769Z,32.40
2017-05-15T11:28:05.057Z,30.50
2017-05-15T11:30:33.387Z,29.20
2017-05-15T11:33:01.671Z,28.40
2017-05-15T11:35:29.986Z,27.50
2017-05-15T11:37:58.290Z,25.40
2017-05-15T11:40:26.553Z,27.50
2017-05-15T11:42:54.833Z,27.90
2017-05-15T11:45:23.141Z,29.10
2017-05-15T11:47:52.188Z,30.10
2017-05-15T11:50:20.501Z,29.50
2017-05-15T11:52:48.800Z,29.00
2017-05-15T11:55:17.090Z,28.70
2017-05-15T11:57:45.377Z,27.00
2017-05-15T12:00:13.700Z,26.00
2017-05-15T12:02:42.009Z,26.00
2017-05-15T12:05:10.334Z,24.70
2017-05-15T12:07:38.663Z,22.90
2017-05-15T12:10:07.851Z,23.10
2017-05-15T12:12:36.179Z,23.40
2017-05-15T12:15:04.693Z,23.10
2017-05-15T12:17:33.001Z,22.60
2017-05-15T12:20:02.072Z,21.60
2017-05-15T12:22:30.373Z,22.90
2017-05-15T12:24:59.397Z,22.00
2017-05-15T12:27:27.696Z,22.90
2017-05-15T12:29:55.984Z,23.20
2017-05-15T12:32:24.268Z,22.70
2017-05-15T12:34:52.549Z,21.70
2017-05-15T12:37:20.831Z,23.40
2017-05-15T12:39:49.145Z,23.10
2017-05-15T12:42:17.436Z,23.40
2017-05-15T12:44:45.711Z,24.70
2017-05-15T12:47:13.999Z,24.30
2017-05-15T12:49:42.306Z,24.00
2017-05-15T12:52:10.637Z,24.80
2017-05-15T12:54:38.996Z,25.00
2017-05-15T12:57:08.101Z,25.80
2017-05-15T12:59:36.413Z,26.80
2017-05-15T13:02:04.720Z,25.40
2017-05-15T13:04:33.035Z,26.70
2017-05-15T13:07:01.329Z,27.90
2017-05-15T13:09:29.691Z,28.80
2017-05-15T13:11:57.985Z,29.20
2017-05-15T13:14:26.303Z,29.20
2017-05-15T13:16:54.680Z,29.00
2017-05-15T13:19:22.987Z,29.40
2017-05-15T13:21:52.058Z,27.60
2017-05-15T13:24:20.371Z,27.00
2017-05-15T13:26:49.416Z,28.40
2017-05-15T13:29:18.156Z,29.10
2017-05-15T13:31:46.444Z,30.00
2017-05-15T13:34:14.742Z,29.90
2017-05-15T13:36:43.098Z,29.30
2017-05-15T13:39:11.429Z,28.70
2017-05-15T13:41:39.745Z,27.30
2017-05-15T13:44:08.121Z,26.40
2017-05-15T13:46:36.408Z,25.90
2017-05-15T13:49:04.703Z,25.80
2017-05-15T13:51:33.001Z,25.60
2017-05-15T13:54:01.391Z,25.30
2017-05-15T13:56:29.718Z,26.00
2017-05-15T13:58:58.018Z,26.90
2017-05-15T14:01:26.312Z,27.10
2017-05-15T14:03:54.623Z,28.60
2017-05-15T14:06:22.992Z,28.70
2017-05-15T14:08:51.325Z,29.40
2017-05-15T14:11:19.611Z,29.60
2017-05-15T14:13:47.893Z,28.40
2017-05-15T14:16:16.183Z,28.90
2017-05-15T14:18:44.503Z,28.30
2017-05-15T14:21:12.802Z,28.80
2017-05-15T14:23:41.158Z,28.70
2017-05-15T14:26:09.476Z,28.60
2017-05-15T14:28:37.771Z,28.50
2017-05-15T14:31:06.050Z,29.30
2017-05-15T14:33:34.372Z,29.90
2017-05-15T14:36:03.397Z,30.50
2017-05-15T14:38:31.711Z,30.70
2017-05-15T14:41:00.011Z,30.50
2017-05-15T14:43:28.287Z,29.40
2017-05-15T14:45:56.638Z,29.40
2017-05-15T14:48:24.932Z,28.90
2017-05-15T14:50:53.228Z,28.90
2017-05-15T14:53:21.529Z,28.10
2017-05-15T14:55:49.943Z,28.30
2017-05-15T14:58:18.263Z,28.70
2017-05-15T15:00:46.707Z,29.00
2017-05-15T15:03:14.993Z,29.00
2017-05-15T15:05:43.412Z,29.50
2017-05-15T15:08:12.486Z,29.00
2017-05-15T15:10:41.522Z,28.70
2017-05-15T15:13:09.848Z,28.60
2017-05-15T15:15:38.146Z,28.70
2017-05-15T15:18:07.417Z,29.00
2017-05-15T15:20:35.879Z,28.50
2017-05-15T15:23:04.253Z,27.60
2017-05-15T15:25:32.571Z,26.30
2017-05-15T15:28:00.980Z,24.40
2017-05-15T15:30:29.270Z,24.20
2017-05-15T15:32:57.550Z,24.40
2017-05-15T15:35:25.831Z,24.10
2017-05-15T15:37:54.108Z,24.30
2017-05-15T15:40:22.444Z,23.60
2017-05-15T15:42:50.736Z,23.30
2017-05-15T15:45:19.021Z,23.20
2017-05-15T15:47:47.314Z,23.40
2017-05-15T15:50:16.545Z,23.40
2017-05-15T15:52:44.819Z,23.50
2017-05-15T15:55:13.300Z,23.80
2017-05-15T15:57:41.671Z,24.20
2017-05-15T16:00:09.967Z,24.80
2017-05-15T16:02:38.365Z,24.80
2017-05-15T16:05:06.899Z,24.80
2017-05-15T16:07:35.333Z,24.90
2017-05-15T16:10:03.619Z,25.20
2017-05-15T16:12:31.919Z,26.90
2017-05-15T16:15:00.247Z,26.40
2017-05-15T16:17:29.531Z,27.40
2017-05-15T16:20:00.895Z,26.20
2017-05-15T16:22:29.388Z,24.40
2017-05-15T16:24:57.718Z,23.30
2017-05-15T16:27:26.026Z,23.70
2017-05-15T16:29:54.323Z,23.90
2017-05-15T16:32:22.646Z,24.50
2017-05-15T16:34:51.008Z,23.90
2017-05-15T16:37:20.057Z,23.40
2017-05-15T16:39:48.353Z,24.20
2017-05-15T16:42:17.923Z,24.60
2017-05-15T16:44:46.291Z,24.40
2017-05-15T16:47:14.597Z,24.90
2017-05-15T16:49:42.888Z,26.10
2017-05-15T16:52:11.179Z,26.10
2017-05-15T16:54:39.561Z,26.40
2017-05-15T16:57:07.869Z,26.50
2017-05-15T16:59:36.155Z,26.30
2017-05-15T17:02:04.463Z,26.00
2017-05-15T17:04:32.747Z,26.30
2017-05-15T17:07:01.105Z,26.20
2017-05-15T17:09:29.511Z,26.20
2017-05-15T17:11:57.810Z,26.60
2017-05-15T17:14:26.130Z,27.10
2017-05-15T17:16:54.434Z,27.30
2017-05-15T17:19:22.760Z,29.00
2017-05-15T17:21:51.227Z,28.90
2017-05-15T17:24:19.712Z,29.00
2017-05-15T17:26:48.867Z,29.20
2017-05-15T17:29:17.237Z,29.70
2017-05-15T17:31:45.584Z,30.00
2017-05-15T17:34:14.058Z,29.90
2017-05-15T17:36:42.432Z,30.00
2017-05-15T17:39:11.026Z,30.30
2017-05-15T17:41:40.127Z,30.50
2017-05-15T17:44:08.547Z,30.70
2017-05-15T17:46:36.828Z,31.00
2017-05-15T17:49:05.121Z,32.20
2017-05-15T17:51:33.545Z,32.40
2017-05-15T17:54:02.030Z,32.80
2017-05-15T17:56:30.362Z,33.20
2017-05-15T17:58:58.701Z,33.60
2017-05-15T18:01:27.015Z,33.60
2017-05-15T18:03:55.348Z,33.50
2017-05-15T18:06:23.659Z,33.90
2017-05-15T18:08:51.948Z,34.30
2017-05-15T18:11:20.247Z,33.70
2017-05-15T18:13:48.554Z,32.90
2017-05-15T18:16:16.822Z,32.90
2017-05-15T18:18:45.884Z,32.60
2017-05-15T18:21:14.179Z,32.50
2017-05-15T18:23:42.480Z,33.00
2017-05-15T18:26:10.786Z,32.50
2017-05-15T18:28:39.077Z,32.50
2017-05-15T18:31:07.587Z,32.80
2017-05-15T18:33:36.639Z,33.40
2017-05-15T18:36:04.919Z,33.30
2017-05-15T18:38:33.227Z,33.50
2017-05-15T18:41:01.577Z,34.00
2017-05-15T18:43:29.884Z,33.90
2017-05-15T18:45:58.162Z,34.50
2017-05-15T18:48:26.500Z,34.60
2017-05-15T18:50:54.896Z,34.80
2017-05-15T18:53:23.202Z,35.00
2017-05-15T18:55:51.509Z,35.10
2017-05-15T18:58:19.794Z,35.60
2017-05-15T19:00:49.059Z,35.50
2017-05-15T19:03:17.375Z,35.90
2017-05-15T19:05:45.687Z,36.00
2017-05-15T19:08:13.959Z,36.20
2017-05-15T19:10:42.240Z,36.30
2017-05-15T19:13:10.690Z,36.40
2017-05-15T19:15:39.000Z,36.40
2017-05-15T19:18:07.299Z,36.60
2017-05-15T19:20:35.617Z,36.80
2017-05-15T19:23:04.156Z,37.20
2017-05-15T19:25:32.463Z,37.40
2017-05-15T19:28:00.807Z,37.40
2017-05-15T19:30:29.143Z,37.50
2017-05-15T19:32:57.474Z,37.90
2017-05-15T19:35:25.786Z,37.80
2017-05-15T19:37:54.084Z,38.10
2017-05-15T19:40:22.436Z,38.00
2017-05-15T19:42:50.731Z,37.80
2017-05-15T19:45:19.193Z,38.50
2017-05-15T19:47:48.435Z,38.50
2017-05-15T19:50:17.114Z,38.60
2017-05-15T19:52:45.408Z,38.60
2017-05-15T19:55:14.394Z,38.80
2017-05-15T19:57:42.795Z,38.90
2017-05-15T20:00:11.174Z,38.90
2017-05-15T20:02:39.518Z,40.00
2017-05-15T20:05:07.918Z,39.60
2017-05-15T20:07:36.454Z,39.80
2017-05-15T20:10:04.810Z,39.90
2017-05-15T20:12:34.062Z,39.90
2017-05-15T20:15:02.481Z,40.10
2017-05-15T20:17:30.893Z,40.00
2017-05-15T20:20:00.091Z,40.30
2017-05-15T20:22:28.412Z,40.40
2017-05-15T20:24:56.775Z,40.60
2017-05-15T20:27:25.144Z,40.80
2017-05-15T20:29:53.467Z,40.90
2017-05-15T20:32:21.760Z,41.30
2017-05-15T20:34:50.121Z,41.30
2017-05-15T20:37:18.457Z,41.50
2017-05-15T20:39:46.873Z,41.60
2017-05-15T20:42:15.154Z,41.70
2017-05-15T20:44:43.602Z,42.00
2017-05-15T20:47:11.995Z,42.20
2017-05-15T20:49:40.326Z,42.20
2017-05-15T20:52:09.359Z,42.60
2017-05-15T20:54:37.689Z,42.70
2017-05-15T20:57:06.225Z,42.70
2017-05-15T20:59:34.599Z,42.90
2017-05-15T21:02:02.885Z,43.10
2017-05-15T21:04:31.224Z,43.30
2017-05-15T21:07:00.380Z,43.40
2017-05-15T21:09:28.733Z,43.60
2017-05-15T21:11:57.084Z,44.00
2017-05-15T21:14:26.148Z,44.20
2017-05-15T21:16:55.395Z,44.30
2017-05-15T21:19:23.688Z,44.60
2017-05-15T21:21:52.763Z,45.00
2017-05-15T21:24:21.122Z,45.00
2017-05-15T21:26:49.432Z,45.40
2017-05-15T21:29:17.929Z,46.00
2017-05-15T21:31:46.213Z,46.40
2017-05-15T21:34:14.681Z,46.90
2017-05-15T21:36:43.857Z,46.90
2017-05-15T21:39:12.178Z,46.80
2017-05-15T21:41:40.511Z,47.10
2017-05-15T21:44:08.792Z,47.20
2017-05-15T21:46:37.176Z,47.30
2017-05-15T21:49:05.517Z,47.50
2017-05-15T21:51:33.824Z,47.90
2017-05-15T21:54:02.115Z,47.80
2017-05-15T21:56:30.414Z,47.80
2017-05-15T21:58:58.706Z,48.00
2017-05-15T22:01:27.007Z,48.00
2017-05-15T22:03:55.316Z,48.20
2017-05-15T22:06:24.388Z,48.50
2017-05-15T22:08:52.744Z,48.60
2017-05-15T22:11:21.961Z,49.00
2017-05-15T22:13:50.361Z,49.40
2017-05-15T22:16:18.705Z,49.70
2017-05-15T22:18:47.039Z,49.90
2017-05-15T22:21:15.346Z,50.10
2017-05-15T22:23:43.626Z,50.10
2017-05-15T22:26:11.964Z,50.10
2017-05-15T22:28:40.294Z,50.30
2017-05-15T22:31:08.592Z,50.30
2017-05-15T22:33:37.639Z,50.50
2017-05-15T22:36:06.028Z,50.70
2017-05-15T22:38:34.315Z,50.90
2017-05-15T22:41:02.612Z,51.00
2017-05-15T22:43:30.915Z,51.20
2017-05-15T22:45:59.242Z,51.50
2017-05-15T22:48:27.540Z,51.50
2017-05-15T22:50:55.833Z,51.60
2017-05-15T22:53:24.134Z,51.70
2017-05-15T22:55:52.417Z,51.70
2017-05-15T22:58:20.703Z,51.70
2017-05-15T23:00:49.019Z,51.40
2017-05-15T23:03:17.322Z,51.40
2017-05-15T23:05:46.402Z,51.60
2017-05-15T23:08:14.686Z,51.70
2017-05-15T23:10:43.716Z,51.80
2017-05-15T23:13:12.003Z,51.90
2017-05-15T23:15:40.320Z,52.10
2017-05-15T23:18:08.627Z,52.20
2017-05-15T23:20:37.715Z,52.30
2017-05-15T23:23:06.745Z,52.60
2017-05-15T23:25:35.063Z,52.50
2017-05-15T23:28:03.321Z,52.40
2017-05-15T23:30:31.656Z,52.30
2017-05-15T23:32:59.994Z,52.40
2017-05-15T23:35:28.319Z,52.40
2017-05-15T23:37:57.531Z,52.60
2017-05-15T23:40:25.878Z,52.60
2017-05-15T23:42:54.921Z,52.90
2017-05-15T23:45:23.228Z,53.00
2017-05-15T23:47:51.587Z,53.00
2017-05-15T23:50:19.972Z,53.00
2017-05-15T23:52:48.289Z,52.80
2017-05-15T23:55:16.619Z,52.70
2017-05-15T23:57:44.908Z,53.00
